sensor_id;sensor_type;location;lat;lon;timestamp;P1;durP1;ratioP1;P2;durP2;ratioP2
64018;SDS011;66942;52.138;5.216;2023-03-07T00:00:29;13.3;;;12.0;;
64018;SDS011;66942;52.138;5.216;2023-03-07T00:02:05;15.2;;;13.2;;
64018;SDS011;66942;52.138;5.216;2023-03-07T00:05:17;12.2;;;11.0;;
64018;SDS011;66942;52.138;5.216;2023-03-07T00:06:54;11.8;;;10.7;;
64018;SDS011;66942;52.138;5.216;2023-03-07T00:08:30;11.8;;;10.7;;
64018;SDS011;66942;52.138;5.216;2023-03-07T00:11:45;10.4;;;9.4;;
64018;SDS011;66942;52.138;5.216;2023-03-07T00:13:21;11.0;;;9.5;;
64018;SDS011;66942;52.138;5.216;2023-03-07T00:14:57;9.6;;;8.6;;
64018;SDS011;66942;52.138;5.216;2023-03-07T00:18:09;10.4;;;9.31;;
64018;SDS011;66942;52.138;5.216;2023-03-07T00:19:45;11.7;;;8.9;;
64018;SDS011;66942;52.138;5.216;2023-03-07T00:21:22;9.6;;;8.6;;
64018;SDS011;66942;52.138;5.216;2023-03-07T00:22:58;12.5;;;8.4;;
64018;SDS011;66942;52.138;5.216;2023-03-07T00:26:11;11.1;;;9.4;;
64018;SDS011;66942;52.138;5.216;2023-03-07T00:27:49;11.3;;;7.8;;
64018;SDS011;66942;52.138;5.216;2023-03-07T00:29:25;13.4;;;8.4;;
64018;SDS011;66942;52.138;5.216;2023-03-07T00:32:41;12.0;;;8.0;;
64018;SDS011;66942;52.138;5.216;2023-03-07T00:34:17;10.9;;;8.1;;
64018;SDS011;66942;52.138;5.216;2023-03-07T00:35:53;10.9;;;8.4;;
64018;SDS011;66942;52.138;5.216;2023-03-07T00:39:07;10.9;;;8.5;;
64018;SDS011;66942;52.138;5.216;2023-03-07T00:40:43;14.1;;;8.6;;
64018;SDS011;66942;52.138;5.216;2023-03-07T00:42:19;10.9;;;8.5;;
64018;SDS011;66942;52.138;5.216;2023-03-07T00:43:56;13.8;;;8.5;;
64018;SDS011;66942;52.138;5.216;2023-03-07T00:47:08;9.9;;;7.3;;
64018;SDS011;66942;52.138;5.216;2023-03-07T00:48:44;8.31;;;6.7;;
64018;SDS011;66942;52.138;5.216;2023-03-07T00:50:21;10.5;;;8.1;;
64018;SDS011;66942;52.138;5.216;2023-03-07T00:53:34;9.9;;;7.9;;
64018;SDS011;66942;52.138;5.216;2023-03-07T00:55:12;10.9;;;8.2;;
64018;SDS011;66942;52.138;5.216;2023-03-07T00:56:48;13.7;;;8.71;;
64018;SDS011;66942;52.138;5.216;2023-03-07T01:00:02;13.7;;;8.71;;
64018;SDS011;66942;52.138;5.216;2023-03-07T01:01:39;10.5;;;7.6;;
64018;SDS011;66942;52.138;5.216;2023-03-07T01:03:15;11.1;;;7.6;;
64018;SDS011;66942;52.138;5.216;2023-03-07T01:04:52;12.2;;;8.1;;
64018;SDS011;66942;52.138;5.216;2023-03-07T01:08:08;12.4;;;8.5;;
64018;SDS011;66942;52.138;5.216;2023-03-07T01:09:44;12.7;;;8.9;;
64018;SDS011;66942;52.138;5.216;2023-03-07T01:11:20;12.2;;;8.0;;
64018;SDS011;66942;52.138;5.216;2023-03-07T01:14:32;9.81;;;7.7;;
64018;SDS011;66942;52.138;5.216;2023-03-07T01:16:09;10.21;;;6.6;;
64018;SDS011;66942;52.138;5.216;2023-03-07T01:17:49;8.1;;;7.0;;
64018;SDS011;66942;52.138;5.216;2023-03-07T01:19:25;7.4;;;6.6;;
64018;SDS011;66942;52.138;5.216;2023-03-07T01:22:45;10.4;;;7.2;;
64018;SDS011;66942;52.138;5.216;2023-03-07T01:24:21;7.3;;;5.6;;
64018;SDS011;66942;52.138;5.216;2023-03-07T01:25:57;5.8;;;5.2;;
64018;SDS011;66942;52.138;5.216;2023-03-07T01:29:10;8.1;;;5.0;;
64018;SDS011;66942;52.138;5.216;2023-03-07T01:30:55;6.4;;;4.2;;
64018;SDS011;66942;52.138;5.216;2023-03-07T01:32:32;9.1;;;4.8;;
64018;SDS011;66942;52.138;5.216;2023-03-07T01:34:08;7.0;;;5.0;;
64018;SDS011;66942;52.138;5.216;2023-03-07T01:37:20;7.7;;;4.3;;
64018;SDS011;66942;52.138;5.216;2023-03-07T01:38:57;5.6;;;3.9;;
64018;SDS011;66942;52.138;5.216;2023-03-07T01:40:35;7.4;;;3.7;;
64018;SDS011;66942;52.138;5.216;2023-03-07T01:43:49;6.0;;;3.7;;
64018;SDS011;66942;52.138;5.216;2023-03-07T01:46:32;5.3;;;4.0;;
64018;SDS011;66942;52.138;5.216;2023-03-07T01:48:18;8.6;;;4.2;;
64018;SDS011;66942;52.138;5.216;2023-03-07T01:49:54;5.3;;;3.3;;
64018;SDS011;66942;52.138;5.216;2023-03-07T01:51:34;8.81;;;4.0;;
64018;SDS011;66942;52.138;5.216;2023-03-07T01:53:13;6.4;;;3.6;;
64018;SDS011;66942;52.138;5.216;2023-03-07T01:56:30;5.8;;;3.5;;
64018;SDS011;66942;52.138;5.216;2023-03-07T01:58:07;7.0;;;3.6;;
64018;SDS011;66942;52.138;5.216;2023-03-07T01:59:47;7.5;;;4.0;;
64018;SDS011;66942;52.138;5.216;2023-03-07T02:01:26;7.7;;;4.3;;
64018;SDS011;66942;52.138;5.216;2023-03-07T02:04:47;6.8;;;3.7;;
64018;SDS011;66942;52.138;5.216;2023-03-07T02:06:28;8.2;;;4.61;;
64018;SDS011;66942;52.138;5.216;2023-03-07T02:08:08;6.1;;;3.6;;
64018;SDS011;66942;52.138;5.216;2023-03-07T02:09:48;5.9;;;3.9;;
64018;SDS011;66942;52.138;5.216;2023-03-07T02:13:04;10.21;;;4.7;;
64018;SDS011;66942;52.138;5.216;2023-03-07T02:14:41;7.8;;;4.41;;
64018;SDS011;66942;52.138;5.216;2023-03-07T02:16:20;6.1;;;3.7;;
64018;SDS011;66942;52.138;5.216;2023-03-07T02:19:37;9.21;;;5.11;;
64018;SDS011;66942;52.138;5.216;2023-03-07T02:21:29;9.4;;;4.61;;
64018;SDS011;66942;52.138;5.216;2023-03-07T02:23:17;8.1;;;4.2;;
64018;SDS011;66942;52.138;5.216;2023-03-07T02:25:01;9.21;;;5.0;;
64018;SDS011;66942;52.138;5.216;2023-03-07T02:26:43;9.31;;;4.1;;
64018;SDS011;66942;52.138;5.216;2023-03-07T02:29:56;8.2;;;3.7;;
64018;SDS011;66942;52.138;5.216;2023-03-07T02:31:32;8.6;;;4.2;;
64018;SDS011;66942;52.138;5.216;2023-03-07T02:33:08;9.4;;;4.3;;
64018;SDS011;66942;52.138;5.216;2023-03-07T02:34:44;7.6;;;4.41;;
64018;SDS011;66942;52.138;5.216;2023-03-07T02:38:00;8.5;;;4.5;;
64018;SDS011;66942;52.138;5.216;2023-03-07T02:39:40;9.1;;;4.3;;
64018;SDS011;66942;52.138;5.216;2023-03-07T02:41:20;9.5;;;4.3;;
64018;SDS011;66942;52.138;5.216;2023-03-07T02:44:39;6.3;;;3.4;;
64018;SDS011;66942;52.138;5.216;2023-03-07T02:46:15;10.5;;;3.6;;
64018;SDS011;66942;52.138;5.216;2023-03-07T02:47:51;8.71;;;4.1;;
64018;SDS011;66942;52.138;5.216;2023-03-07T02:49:27;8.5;;;3.6;;
64018;SDS011;66942;52.138;5.216;2023-03-07T02:52:41;9.6;;;4.0;;
64018;SDS011;66942;52.138;5.216;2023-03-07T02:54:18;8.6;;;3.6;;
64018;SDS011;66942;52.138;5.216;2023-03-07T02:55:54;10.5;;;3.5;;
64018;SDS011;66942;52.138;5.216;2023-03-07T02:59:06;8.71;;;3.8;;
64018;SDS011;66942;52.138;5.216;2023-03-07T03:00:42;9.1;;;4.1;;
64018;SDS011;66942;52.138;5.216;2023-03-07T03:02:19;9.5;;;3.4;;
64018;SDS011;66942;52.138;5.216;2023-03-07T03:05:31;8.4;;;3.5;;
64018;SDS011;66942;52.138;5.216;2023-03-07T03:07:07;7.4;;;3.5;;
64018;SDS011;66942;52.138;5.216;2023-03-07T03:08:43;9.31;;;3.6;;
64018;SDS011;66942;52.138;5.216;2023-03-07T03:10:19;8.71;;;4.1;;
64018;SDS011;66942;52.138;5.216;2023-03-07T03:13:33;7.9;;;3.8;;
64018;SDS011;66942;52.138;5.216;2023-03-07T03:15:09;7.5;;;3.4;;
64018;SDS011;66942;52.138;5.216;2023-03-07T03:16:46;7.5;;;3.4;;
64018;SDS011;66942;52.138;5.216;2023-03-07T03:19:59;10.0;;;3.8;;
64018;SDS011;66942;52.138;5.216;2023-03-07T03:21:35;8.1;;;3.3;;
64018;SDS011;66942;52.138;5.216;2023-03-07T03:23:12;11.8;;;4.2;;
64018;SDS011;66942;52.138;5.216;2023-03-07T03:26:24;6.4;;;3.7;;
64018;SDS011;66942;52.138;5.216;2023-03-07T03:28:00;10.3;;;3.9;;
64018;SDS011;66942;52.138;5.216;2023-03-07T03:29:36;9.81;;;4.1;;
64018;SDS011;66942;52.138;5.216;2023-03-07T03:31:12;8.9;;;4.1;;
64018;SDS011;66942;52.138;5.216;2023-03-07T03:34:25;10.4;;;3.9;;
64018;SDS011;66942;52.138;5.216;2023-03-07T03:36:04;10.3;;;4.41;;
64018;SDS011;66942;52.138;5.216;2023-03-07T03:37:43;11.6;;;4.1;;
64018;SDS011;66942;52.138;5.216;2023-03-07T03:40:55;8.4;;;4.1;;
64018;SDS011;66942;52.138;5.216;2023-03-07T03:42:31;7.7;;;3.7;;
64018;SDS011;66942;52.138;5.216;2023-03-07T03:44:07;9.4;;;3.7;;
64018;SDS011;66942;52.138;5.216;2023-03-07T03:47:29;8.0;;;4.1;;
64018;SDS011;66942;52.138;5.216;2023-03-07T03:49:05;9.4;;;4.1;;
64018;SDS011;66942;52.138;5.216;2023-03-07T03:50:41;9.21;;;3.7;;
64018;SDS011;66942;52.138;5.216;2023-03-07T03:52:17;7.7;;;3.6;;
64018;SDS011;66942;52.138;5.216;2023-03-07T03:55:30;8.4;;;3.8;;
64018;SDS011;66942;52.138;5.216;2023-03-07T03:57:08;8.2;;;4.2;;
64018;SDS011;66942;52.138;5.216;2023-03-07T03:58:45;8.71;;;3.5;;
64018;SDS011;66942;52.138;5.216;2023-03-07T04:01:59;10.3;;;3.8;;
64018;SDS011;66942;52.138;5.216;2023-03-07T04:03:36;8.4;;;4.0;;
64018;SDS011;66942;52.138;5.216;2023-03-07T04:05:14;7.5;;;3.7;;
64018;SDS011;66942;52.138;5.216;2023-03-07T04:06:50;6.3;;;3.1;;
64018;SDS011;66942;52.138;5.216;2023-03-07T04:10:03;6.2;;;3.8;;
64018;SDS011;66942;52.138;5.216;2023-03-07T04:11:40;6.9;;;3.4;;
64018;SDS011;66942;52.138;5.216;2023-03-07T04:13:16;5.7;;;3.7;;
64018;SDS011;66942;52.138;5.216;2023-03-07T04:16:28;7.8;;;3.8;;
64018;SDS011;66942;52.138;5.216;2023-03-07T04:18:04;8.2;;;3.5;;
64018;SDS011;66942;52.138;5.216;2023-03-07T04:19:40;7.7;;;3.9;;
64018;SDS011;66942;52.138;5.216;2023-03-07T04:22:54;7.5;;;4.5;;
64018;SDS011;66942;52.138;5.216;2023-03-07T04:24:30;5.4;;;3.3;;
64018;SDS011;66942;52.138;5.216;2023-03-07T04:26:07;7.9;;;3.9;;
64018;SDS011;66942;52.138;5.216;2023-03-07T04:27:44;7.1;;;4.1;;
64018;SDS011;66942;52.138;5.216;2023-03-07T04:30:57;5.7;;;3.8;;
64018;SDS011;66942;52.138;5.216;2023-03-07T04:32:33;9.0;;;4.1;;
64018;SDS011;66942;52.138;5.216;2023-03-07T04:34:09;9.31;;;4.2;;
64018;SDS011;66942;52.138;5.216;2023-03-07T04:37:21;8.9;;;4.2;;
64018;SDS011;66942;52.138;5.216;2023-03-07T04:38:57;8.2;;;3.9;;
64018;SDS011;66942;52.138;5.216;2023-03-07T04:40:34;9.81;;;4.61;;
64018;SDS011;66942;52.138;5.216;2023-03-07T04:43:46;7.3;;;3.6;;
64018;SDS011;66942;52.138;5.216;2023-03-07T04:45:22;8.1;;;3.8;;
64018;SDS011;66942;52.138;5.216;2023-03-07T04:46:58;6.8;;;3.6;;
64018;SDS011;66942;52.138;5.216;2023-03-07T04:50:10;7.8;;;3.4;;
64018;SDS011;66942;52.138;5.216;2023-03-07T04:51:46;9.5;;;3.5;;
64018;SDS011;66942;52.138;5.216;2023-03-07T04:53:23;9.6;;;3.3;;
64018;SDS011;66942;52.138;5.216;2023-03-07T04:54:59;7.6;;;2.6;;
64018;SDS011;66942;52.138;5.216;2023-03-07T04:58:11;6.7;;;2.4;;
64018;SDS011;66942;52.138;5.216;2023-03-07T04:59:48;5.8;;;2.31;;
64018;SDS011;66942;52.138;5.216;2023-03-07T05:01:24;8.31;;;2.4;;
64018;SDS011;66942;52.138;5.216;2023-03-07T05:04:37;4.91;;;1.9;;
64018;SDS011;66942;52.138;5.216;2023-03-07T05:06:13;8.71;;;2.1;;
64018;SDS011;66942;52.138;5.216;2023-03-07T05:07:51;5.11;;;1.6;;
64018;SDS011;66942;52.138;5.216;2023-03-07T05:11:05;7.8;;;1.9;;
64018;SDS011;66942;52.138;5.216;2023-03-07T05:12:41;3.7;;;1.3;;
64018;SDS011;66942;52.138;5.216;2023-03-07T05:14:17;6.1;;;1.5;;
64018;SDS011;66942;52.138;5.216;2023-03-07T05:15:54;5.8;;;1.3;;
64018;SDS011;66942;52.138;5.216;2023-03-07T05:19:08;5.3;;;1.5;;
64018;SDS011;66942;52.138;5.216;2023-03-07T05:20:45;5.0;;;1.4;;
64018;SDS011;66942;52.138;5.216;2023-03-07T05:22:21;6.2;;;1.5;;
64018;SDS011;66942;52.138;5.216;2023-03-07T05:25:33;7.0;;;1.7;;
64018;SDS011;66942;52.138;5.216;2023-03-07T05:27:09;5.7;;;1.7;;
64018;SDS011;66942;52.138;5.216;2023-03-07T05:28:46;5.2;;;1.2;;
64018;SDS011;66942;52.138;5.216;2023-03-07T05:31:58;6.1;;;1.4;;
64018;SDS011;66942;52.138;5.216;2023-03-07T05:33:34;4.91;;;1.8;;
64018;SDS011;66942;52.138;5.216;2023-03-07T05:35:10;3.4;;;1.4;;
64018;SDS011;66942;52.138;5.216;2023-03-07T05:36:46;3.9;;;1.2;;
64018;SDS011;66942;52.138;5.216;2023-03-07T05:39:59;3.5;;;1.2;;
64018;SDS011;66942;52.138;5.216;2023-03-07T05:41:35;4.41;;;1.11;;
64018;SDS011;66942;52.138;5.216;2023-03-07T05:43:11;4.5;;;1.2;;
64018;SDS011;66942;52.138;5.216;2023-03-07T05:46:23;3.8;;;1.3;;
64018;SDS011;66942;52.138;5.216;2023-03-07T05:47:59;2.31;;;0.9;;
64018;SDS011;66942;52.138;5.216;2023-03-07T05:49:35;2.8;;;1.11;;
64018;SDS011;66942;52.138;5.216;2023-03-07T05:52:48;4.8;;;1.0;;
64018;SDS011;66942;52.138;5.216;2023-03-07T05:54:24;5.3;;;1.11;;
64018;SDS011;66942;52.138;5.216;2023-03-07T05:56:01;4.1;;;0.9;;
64018;SDS011;66942;52.138;5.216;2023-03-07T05:57:37;4.2;;;1.0;;
64018;SDS011;66942;52.138;5.216;2023-03-07T06:00:49;5.0;;;1.11;;
64018;SDS011;66942;52.138;5.216;2023-03-07T06:02:26;4.1;;;1.0;;
64018;SDS011;66942;52.138;5.216;2023-03-07T06:04:02;4.41;;;1.2;;
64018;SDS011;66942;52.138;5.216;2023-03-07T06:07:14;4.2;;;1.3;;
64018;SDS011;66942;52.138;5.216;2023-03-07T06:08:50;5.5;;;1.6;;
64018;SDS011;66942;52.138;5.216;2023-03-07T06:10:26;4.41;;;1.5;;
64018;SDS011;66942;52.138;5.216;2023-03-07T06:13:40;4.41;;;1.6;;
64018;SDS011;66942;52.138;5.216;2023-03-07T06:15:16;4.91;;;2.1;;
64018;SDS011;66942;52.138;5.216;2023-03-07T06:16:52;5.7;;;2.21;;
64018;SDS011;66942;52.138;5.216;2023-03-07T06:20:05;4.61;;;2.0;;
64018;SDS011;66942;52.138;5.216;2023-03-07T06:21:41;4.5;;;2.4;;
64018;SDS011;66942;52.138;5.216;2023-03-07T06:23:18;4.3;;;2.21;;
64018;SDS011;66942;52.138;5.216;2023-03-07T06:24:54;6.0;;;3.4;;
64018;SDS011;66942;52.138;5.216;2023-03-07T06:28:06;8.9;;;2.8;;
64018;SDS011;66942;52.138;5.216;2023-03-07T06:29:42;3.8;;;2.4;;
64018;SDS011;66942;52.138;5.216;2023-03-07T06:31:18;4.7;;;2.6;;
64018;SDS011;66942;52.138;5.216;2023-03-07T06:34:31;5.3;;;2.4;;
64018;SDS011;66942;52.138;5.216;2023-03-07T06:36:09;3.9;;;2.8;;
64018;SDS011;66942;52.138;5.216;2023-03-07T06:37:49;4.0;;;2.5;;
64018;SDS011;66942;52.138;5.216;2023-03-07T06:41:01;4.7;;;2.4;;
64018;SDS011;66942;52.138;5.216;2023-03-07T06:42:38;6.2;;;2.7;;
64018;SDS011;66942;52.138;5.216;2023-03-07T06:44:14;4.5;;;2.5;;
64018;SDS011;66942;52.138;5.216;2023-03-07T06:45:51;4.1;;;2.0;;
64018;SDS011;66942;52.138;5.216;2023-03-07T06:49:04;3.4;;;2.0;;
64018;SDS011;66942;52.138;5.216;2023-03-07T06:50:40;4.8;;;2.6;;
64018;SDS011;66942;52.138;5.216;2023-03-07T06:52:16;3.8;;;2.0;;
64018;SDS011;66942;52.138;5.216;2023-03-07T06:55:28;3.5;;;1.9;;
64018;SDS011;66942;52.138;5.216;2023-03-07T06:57:04;4.91;;;1.7;;
64018;SDS011;66942;52.138;5.216;2023-03-07T06:58:41;5.11;;;1.9;;
64018;SDS011;66942;52.138;5.216;2023-03-07T07:01:54;4.1;;;2.1;;
64018;SDS011;66942;52.138;5.216;2023-03-07T07:03:30;5.4;;;2.21;;
64018;SDS011;66942;52.138;5.216;2023-03-07T07:05:06;5.2;;;2.4;;
64018;SDS011;66942;52.138;5.216;2023-03-07T07:06:43;4.91;;;1.8;;
64018;SDS011;66942;52.138;5.216;2023-03-07T07:09:56;5.8;;;2.21;;
64018;SDS011;66942;52.138;5.216;2023-03-07T07:11:32;5.3;;;2.21;;
64018;SDS011;66942;52.138;5.216;2023-03-07T07:13:08;4.91;;;2.1;;
64018;SDS011;66942;52.138;5.216;2023-03-07T07:16:22;4.8;;;2.21;;
64018;SDS011;66942;52.138;5.216;2023-03-07T07:17:58;3.3;;;2.0;;
64018;SDS011;66942;52.138;5.216;2023-03-07T07:19:34;3.9;;;2.0;;
64018;SDS011;66942;52.138;5.216;2023-03-07T07:22:47;3.9;;;2.0;;
64018;SDS011;66942;52.138;5.216;2023-03-07T07:24:23;6.0;;;2.8;;
64018;SDS011;66942;52.138;5.216;2023-03-07T07:25:59;3.5;;;1.9;;
64018;SDS011;66942;52.138;5.216;2023-03-07T07:27:35;5.5;;;2.7;;
64018;SDS011;66942;52.138;5.216;2023-03-07T07:30:49;5.5;;;3.4;;
64018;SDS011;66942;52.138;5.216;2023-03-07T07:32:24;5.5;;;3.4;;
64018;SDS011;66942;52.138;5.216;2023-03-07T07:34:01;5.11;;;3.4;;
64018;SDS011;66942;52.138;5.216;2023-03-07T07:37:13;5.3;;;3.4;;
64018;SDS011;66942;52.138;5.216;2023-03-07T07:38:49;6.8;;;3.1;;
64018;SDS011;66942;52.138;5.216;2023-03-07T07:40:25;3.2;;;2.9;;
64018;SDS011;66942;52.138;5.216;2023-03-07T07:43:38;5.6;;;4.2;;
64018;SDS011;66942;52.138;5.216;2023-03-07T07:45:15;6.8;;;4.1;;
64018;SDS011;66942;52.138;5.216;2023-03-07T07:46:51;6.2;;;3.5;;
64018;SDS011;66942;52.138;5.216;2023-03-07T07:50:04;4.8;;;4.2;;
64018;SDS011;66942;52.138;5.216;2023-03-07T07:51:40;5.11;;;4.41;;
64018;SDS011;66942;52.138;5.216;2023-03-07T07:53:16;4.61;;;4.2;;
64018;SDS011;66942;52.138;5.216;2023-03-07T07:54:53;5.3;;;4.41;;
64018;SDS011;66942;52.138;5.216;2023-03-07T07:58:05;4.2;;;3.8;;
64018;SDS011;66942;52.138;5.216;2023-03-07T07:59:41;4.41;;;3.9;;
64018;SDS011;66942;52.138;5.216;2023-03-07T08:01:18;4.2;;;3.9;;
64018;SDS011;66942;52.138;5.216;2023-03-07T08:04:33;5.11;;;4.7;;
64018;SDS011;66942;52.138;5.216;2023-03-07T08:06:10;4.61;;;4.2;;
64018;SDS011;66942;52.138;5.216;2023-03-07T08:07:48;5.4;;;4.91;;
64018;SDS011;66942;52.138;5.216;2023-03-07T08:11:00;5.9;;;5.4;;
64018;SDS011;66942;52.138;5.216;2023-03-07T08:12:36;4.0;;;3.7;;
64018;SDS011;66942;52.138;5.216;2023-03-07T08:14:12;5.8;;;5.2;;
64018;SDS011;66942;52.138;5.216;2023-03-07T08:15:48;5.5;;;5.11;;
64018;SDS011;66942;52.138;5.216;2023-03-07T08:19:03;6.2;;;5.6;;
64018;SDS011;66942;52.138;5.216;2023-03-07T08:20:39;7.2;;;6.5;;
64018;SDS011;66942;52.138;5.216;2023-03-07T08:22:15;5.8;;;5.3;;
64018;SDS011;66942;52.138;5.216;2023-03-07T08:25:28;5.8;;;4.91;;
64018;SDS011;66942;52.138;5.216;2023-03-07T08:27:04;5.11;;;4.41;;
64018;SDS011;66942;52.138;5.216;2023-03-07T08:28:41;6.2;;;5.5;;
64018;SDS011;66942;52.138;5.216;2023-03-07T08:31:54;9.0;;;6.8;;
64018;SDS011;66942;52.138;5.216;2023-03-07T08:33:30;5.8;;;5.11;;
64018;SDS011;66942;52.138;5.216;2023-03-07T08:35:07;4.8;;;4.3;;
64018;SDS011;66942;52.138;5.216;2023-03-07T08:36:43;6.8;;;5.0;;
64018;SDS011;66942;52.138;5.216;2023-03-07T08:39:56;4.5;;;4.1;;
64018;SDS011;66942;52.138;5.216;2023-03-07T08:41:32;6.5;;;5.0;;
64018;SDS011;66942;52.138;5.216;2023-03-07T08:43:08;6.2;;;3.7;;
64018;SDS011;66942;52.138;5.216;2023-03-07T08:46:20;4.3;;;3.4;;
64018;SDS011;66942;52.138;5.216;2023-03-07T08:47:56;4.91;;;4.0;;
64018;SDS011;66942;52.138;5.216;2023-03-07T08:49:32;5.0;;;3.4;;
64018;SDS011;66942;52.138;5.216;2023-03-07T08:52:48;5.3;;;4.0;;
64018;SDS011;66942;52.138;5.216;2023-03-07T08:54:26;5.11;;;3.5;;
64018;SDS011;66942;52.138;5.216;2023-03-07T08:56:05;6.3;;;4.1;;
64018;SDS011;66942;52.138;5.216;2023-03-07T08:57:42;4.91;;;3.5;;
64018;SDS011;66942;52.138;5.216;2023-03-07T09:00:56;3.9;;;3.2;;
64018;SDS011;66942;52.138;5.216;2023-03-07T09:02:33;5.11;;;3.3;;
64018;SDS011;66942;52.138;5.216;2023-03-07T09:04:09;4.5;;;2.7;;
64018;SDS011;66942;52.138;5.216;2023-03-07T09:07:22;4.5;;;2.7;;
64018;SDS011;66942;52.138;5.216;2023-03-07T09:08:58;4.61;;;2.9;;
64018;SDS011;66942;52.138;5.216;2023-03-07T09:10:34;7.4;;;3.2;;
64018;SDS011;66942;52.138;5.216;2023-03-07T09:12:11;5.3;;;3.1;;
64018;SDS011;66942;52.138;5.216;2023-03-07T09:15:24;6.8;;;3.5;;
64018;SDS011;66942;52.138;5.216;2023-03-07T09:17:00;6.2;;;3.7;;
64018;SDS011;66942;52.138;5.216;2023-03-07T09:18:36;3.9;;;3.0;;
64018;SDS011;66942;52.138;5.216;2023-03-07T09:21:49;6.1;;;3.1;;
64018;SDS011;66942;52.138;5.216;2023-03-07T09:23:25;4.7;;;3.1;;
64018;SDS011;66942;52.138;5.216;2023-03-07T09:25:02;5.2;;;3.2;;
64018;SDS011;66942;52.138;5.216;2023-03-07T09:28:15;6.8;;;4.7;;
64018;SDS011;66942;52.138;5.216;2023-03-07T09:29:51;3.9;;;3.0;;
64018;SDS011;66942;52.138;5.216;2023-03-07T09:31:27;4.7;;;2.6;;
64018;SDS011;66942;52.138;5.216;2023-03-07T09:34:39;5.3;;;2.6;;
64018;SDS011;66942;52.138;5.216;2023-03-07T09:36:15;3.9;;;2.5;;
64018;SDS011;66942;52.138;5.216;2023-03-07T09:37:53;4.0;;;2.7;;
64018;SDS011;66942;52.138;5.216;2023-03-07T09:39:29;4.41;;;2.7;;
64018;SDS011;66942;52.138;5.216;2023-03-07T09:43:16;4.2;;;2.9;;
64018;SDS011;66942;52.138;5.216;2023-03-07T09:44:59;5.0;;;3.4;;
64018;SDS011;66942;52.138;5.216;2023-03-07T09:47:19;6.4;;;3.3;;
64018;SDS011;66942;52.138;5.216;2023-03-07T09:49:15;3.7;;;3.1;;
64018;SDS011;66942;52.138;5.216;2023-03-07T09:50:56;5.3;;;4.0;;
64018;SDS011;66942;52.138;5.216;2023-03-07T09:52:36;3.5;;;2.9;;
64018;SDS011;66942;52.138;5.216;2023-03-07T09:54:16;4.61;;;3.5;;
64018;SDS011;66942;52.138;5.216;2023-03-07T09:57:36;3.5;;;3.2;;
64018;SDS011;66942;52.138;5.216;2023-03-07T09:59:23;5.0;;;3.1;;
64018;SDS011;66942;52.138;5.216;2023-03-07T10:01:08;5.2;;;3.3;;
64018;SDS011;66942;52.138;5.216;2023-03-07T10:02:49;5.3;;;2.9;;
64018;SDS011;66942;52.138;5.216;2023-03-07T10:04:34;3.8;;;3.2;;
64018;SDS011;66942;52.138;5.216;2023-03-07T10:08:02;3.9;;;3.0;;
64018;SDS011;66942;52.138;5.216;2023-03-07T10:09:40;3.3;;;3.0;;
64018;SDS011;66942;52.138;5.216;2023-03-07T10:11:21;4.0;;;2.8;;
64018;SDS011;66942;52.138;5.216;2023-03-07T10:13:12;4.91;;;2.9;;
64018;SDS011;66942;52.138;5.216;2023-03-07T10:15:10;2.9;;;2.4;;
64018;SDS011;66942;52.138;5.216;2023-03-07T10:18:45;4.61;;;3.1;;
64018;SDS011;66942;52.138;5.216;2023-03-07T10:20:35;3.9;;;2.1;;
64018;SDS011;66942;52.138;5.216;2023-03-07T10:22:21;3.3;;;1.8;;
64018;SDS011;66942;52.138;5.216;2023-03-07T10:24:17;4.0;;;1.9;;
64018;SDS011;66942;52.138;5.216;2023-03-07T10:26:07;4.61;;;1.9;;
64018;SDS011;66942;52.138;5.216;2023-03-07T10:27:46;6.4;;;3.8;;
64018;SDS011;66942;52.138;5.216;2023-03-07T10:31:13;6.0;;;1.7;;
64018;SDS011;66942;52.138;5.216;2023-03-07T10:32:52;5.7;;;1.8;;
64018;SDS011;66942;52.138;5.216;2023-03-07T10:34:31;2.9;;;1.6;;
64018;SDS011;66942;52.138;5.216;2023-03-07T10:36:09;3.3;;;1.11;;
64018;SDS011;66942;52.138;5.216;2023-03-07T10:39:33;5.3;;;2.5;;
64018;SDS011;66942;52.138;5.216;2023-03-07T10:41:16;4.8;;;1.5;;
64018;SDS011;66942;52.138;5.216;2023-03-07T10:42:56;5.5;;;1.5;;
64018;SDS011;66942;52.138;5.216;2023-03-07T10:44:34;3.9;;;1.3;;
64018;SDS011;66942;52.138;5.216;2023-03-07T10:47:52;3.7;;;1.4;;
64018;SDS011;66942;52.138;5.216;2023-03-07T10:49:29;3.6;;;1.3;;
64018;SDS011;66942;52.138;5.216;2023-03-07T10:51:11;3.2;;;1.11;;
64018;SDS011;66942;52.138;5.216;2023-03-07T10:53:07;3.9;;;1.4;;
64018;SDS011;66942;52.138;5.216;2023-03-07T10:55:27;3.2;;;1.11;;
64018;SDS011;66942;52.138;5.216;2023-03-07T10:57:08;3.4;;;1.11;;
64018;SDS011;66942;52.138;5.216;2023-03-07T11:00:40;2.7;;;1.0;;
64018;SDS011;66942;52.138;5.216;2023-03-07T11:02:26;3.6;;;1.2;;
64018;SDS011;66942;52.138;5.216;2023-03-07T11:04:19;3.8;;;1.3;;
64018;SDS011;66942;52.138;5.216;2023-03-07T11:05:57;3.0;;;1.0;;
64018;SDS011;66942;52.138;5.216;2023-03-07T11:07:35;5.11;;;1.4;;
64018;SDS011;66942;52.138;5.216;2023-03-07T11:11:02;2.1;;;0.8;;
64018;SDS011;66942;52.138;5.216;2023-03-07T11:12:43;2.7;;;0.9;;
64018;SDS011;66942;52.138;5.216;2023-03-07T11:14:20;3.0;;;1.0;;
64018;SDS011;66942;52.138;5.216;2023-03-07T11:16:15;4.3;;;1.0;;
64018;SDS011;66942;52.138;5.216;2023-03-07T11:17:55;2.7;;;0.9;;
64018;SDS011;66942;52.138;5.216;2023-03-07T11:21:30;2.5;;;1.11;;
64018;SDS011;66942;52.138;5.216;2023-03-07T11:23:12;3.5;;;1.0;;
64018;SDS011;66942;52.138;5.216;2023-03-07T11:24:56;2.6;;;1.11;;
64018;SDS011;66942;52.138;5.216;2023-03-07T11:26:38;3.4;;;1.2;;
64018;SDS011;66942;52.138;5.216;2023-03-07T11:28:24;5.3;;;1.11;;
64018;SDS011;66942;52.138;5.216;2023-03-07T11:32:08;2.6;;;1.2;;
64018;SDS011;66942;52.138;5.216;2023-03-07T11:33:50;4.1;;;1.0;;
64018;SDS011;66942;52.138;5.216;2023-03-07T11:35:50;3.2;;;0.9;;
64018;SDS011;66942;52.138;5.216;2023-03-07T11:38:17;3.0;;;0.9;;
64018;SDS011;66942;52.138;5.216;2023-03-07T11:40:12;4.1;;;1.0;;
64018;SDS011;66942;52.138;5.216;2023-03-07T11:41:58;3.3;;;1.2;;
64018;SDS011;66942;52.138;5.216;2023-03-07T11:43:40;3.0;;;1.11;;
64018;SDS011;66942;52.138;5.216;2023-03-07T11:45:34;3.6;;;1.11;;
64018;SDS011;66942;52.138;5.216;2023-03-07T11:47:25;3.2;;;1.3;;
64018;SDS011;66942;52.138;5.216;2023-03-07T11:49:15;4.8;;;1.5;;
64018;SDS011;66942;52.138;5.216;2023-03-07T11:53:54;3.8;;;1.4;;
64018;SDS011;66942;52.138;5.216;2023-03-07T11:55:56;4.1;;;1.5;;
64018;SDS011;66942;52.138;5.216;2023-03-07T11:57:51;4.91;;;1.5;;
64018;SDS011;66942;52.138;5.216;2023-03-07T11:59:49;2.5;;;1.2;;
64018;SDS011;66942;52.138;5.216;2023-03-07T12:02:05;9.1;;;1.11;;
64018;SDS011;66942;52.138;5.216;2023-03-07T12:07:46;2.4;;;0.7;;
64018;SDS011;66942;52.138;5.216;2023-03-07T12:09:40;2.8;;;0.9;;
64018;SDS011;66942;52.138;5.216;2023-03-07T12:11:28;2.21;;;1.11;;
64018;SDS011;66942;52.138;5.216;2023-03-07T12:13:24;2.8;;;1.0;;
64018;SDS011;66942;52.138;5.216;2023-03-07T12:15:24;2.7;;;0.8;;
64018;SDS011;66942;52.138;5.216;2023-03-07T12:17:17;2.1;;;0.7;;
64018;SDS011;66942;52.138;5.216;2023-03-07T12:19:09;2.1;;;0.9;;
64018;SDS011;66942;52.138;5.216;2023-03-07T12:21:33;2.1;;;0.8;;
64018;SDS011;66942;52.138;5.216;2023-03-07T12:23:31;1.9;;;0.6;;
64018;SDS011;66942;52.138;5.216;2023-03-07T12:25:17;2.5;;;0.6;;
64018;SDS011;66942;52.138;5.216;2023-03-07T12:26:58;4.1;;;1.0;;
64018;SDS011;66942;52.138;5.216;2023-03-07T12:30:21;2.21;;;0.6;;
64018;SDS011;66942;52.138;5.216;2023-03-07T12:32:02;3.0;;;1.0;;
64018;SDS011;66942;52.138;5.216;2023-03-07T12:33:49;2.31;;;1.0;;
64018;SDS011;66942;52.138;5.216;2023-03-07T12:35:35;2.1;;;1.0;;
64018;SDS011;66942;52.138;5.216;2023-03-07T12:37:19;3.8;;;1.3;;
64018;SDS011;66942;52.138;5.216;2023-03-07T12:40:50;3.1;;;1.2;;
64018;SDS011;66942;52.138;5.216;2023-03-07T12:42:34;3.5;;;1.3;;
64018;SDS011;66942;52.138;5.216;2023-03-07T12:44:19;2.7;;;1.2;;
64018;SDS011;66942;52.138;5.216;2023-03-07T12:46:11;2.5;;;0.8;;
64018;SDS011;66942;52.138;5.216;2023-03-07T12:47:56;2.7;;;0.9;;
64018;SDS011;66942;52.138;5.216;2023-03-07T12:51:25;2.6;;;0.7;;
64018;SDS011;66942;52.138;5.216;2023-03-07T12:53:09;3.6;;;1.4;;
64018;SDS011;66942;52.138;5.216;2023-03-07T12:54:54;4.7;;;1.3;;
64018;SDS011;66942;52.138;5.216;2023-03-07T12:56:39;5.0;;;1.9;;
64018;SDS011;66942;52.138;5.216;2023-03-07T12:58:28;5.0;;;1.3;;